Time;durP1;ratioP1;P1;durP2;ratioP2;P2;SDS_P1;SDS_P2;PMS_P1;PMS_P2;Temp;Humidity;BMP_temperature;BMP_pressure;BME280_temperature;BME280_humidity;BME280_pressure;Samples;Min_cycle;Max_cycle;Signal;HPM_P1;HPM_P2
2022/06/09 00:00:50;;;;;;;11.93;2.58;;;;;;;15.73;68.61;100845.69;4975651;28;20047;-71
2022/06/09 00:03:32;;;;;;;11.77;2.42;;;;;;;15.73;68.67;100849.28;4977324;28;20912;-70
2022/06/09 00:05:59;;;;;;;11.50;2.55;;;;;;;15.64;69.08;100856.88;4982368;28;20073;-70
2022/06/09 00:08:28;;;;;;;12.45;2.28;;;;;;;15.69;68.98;100856.66;4978727;28;20054;-70
2022/06/09 00:10:59;;;;;;;15.30;3.03;;;;;;;15.56;70.60;100863.34;4986180;28;20054;-70
2022/06/09 00:13:26;;;;;;;11.35;2.35;;;;;;;15.77;69.25;100861.31;4978071;28;20059;-69
2022/06/09 00:15:54;;;;;;;14.75;2.53;;;;;;;15.50;69.24;100861.13;4976374;28;20070;-72
2022/06/09 00:18:22;;;;;;;17.95;2.65;;;;;;;15.49;69.94;100863.09;4959281;28;20059;-70
2022/06/09 00:20:50;;;;;;;15.02;3.13;;;;;;;15.33;70.16;100864.03;4983425;28;20062;-71
2022/06/09 00:23:18;;;;;;;12.48;2.40;;;;;;;15.15;70.51;100874.50;4981327;28;20058;-70
2022/06/09 00:25:46;;;;;;;13.98;2.75;;;;;;;15.00;71.04;100872.34;4980110;28;20058;-70
2022/06/09 00:28:15;;;;;;;20.67;3.33;;;;;;;15.04;72.25;100875.25;4984464;28;20062;-70
2022/06/09 00:30:43;;;;;;;13.35;2.47;;;;;;;15.01;71.55;100873.97;4977024;28;20575;-70
2022/06/09 00:33:11;;;;;;;14.50;2.83;;;;;;;15.01;71.90;100885.06;4977604;28;20062;-70
2022/06/09 00:35:39;;;;;;;16.48;2.88;;;;;;;15.15;72.88;100884.81;4958695;28;20054;-70
2022/06/09 00:38:06;;;;;;;15.73;2.47;;;;;;;14.95;72.21;100886.44;4975792;28;20062;-70
2022/06/09 00:40:34;;;;;;;15.88;2.90;;;;;;;14.86;73.65;100887.63;4979691;28;20058;-70
2022/06/09 00:43:03;;;;;;;18.95;2.75;;;;;;;14.95;71.57;100886.44;4981855;28;20399;-70
2022/06/09 00:45:33;;;;;;;;;;;;;;;14.77;72.45;100887.69;4960907;28;20050;-70
2022/06/09 00:48:31;;;;;;;18.88;3.00;;;;;;;15.10;72.36;100888.56;4981089;28;19930;-70
2022/06/09 00:51:26;;;;;;;18.50;3.55;;;;;;;15.11;71.79;100890.22;4975399;28;20054;-70
2022/06/09 00:53:59;;;;;;;18.90;3.05;;;;;;;14.73;72.71;100885.94;4968131;28;20039;-70
2022/06/09 00:56:26;;;;;;;18.33;3.67;;;;;;;14.64;73.21;100897.09;4976494;28;20062;-70
2022/06/09 00:58:55;;;;;;;19.42;3.38;;;;;;;14.73;73.28;100892.31;4984714;28;20462;-70
2022/06/09 01:01:23;;;;;;;17.73;3.37;;;;;;;14.93;72.73;100893.44;4977757;28;20058;-70
2022/06/09 01:03:56;;;;;;;21.17;3.30;;;;;;;14.83;72.60;100894.69;4975871;28;20055;-70
2022/06/09 01:06:27;;;;;;;20.55;3.55;;;;;;;14.88;73.03;100900.03;4992761;28;20526;-70
2022/06/09 01:09:09;;;;;;;19.42;3.00;;;;;;;14.91;73.10;100895.75;4971958;28;20438;-70
2022/06/09 01:11:38;;;;;;;17.60;4.10;;;;;;;14.76;73.64;100897.19;4974882;28;20046;-63
2022/06/09 01:14:06;;;;;;;19.40;3.65;;;;;;;14.87;73.43;100901.16;4973555;28;20054;-65
2022/06/09 01:16:48;;;;;;;20.85;3.50;;;;;;;14.87;73.07;100892.03;4983079;28;20540;-63
2022/06/09 01:19:50;;;;;;;20.02;3.47;;;;;;;14.72;73.68;100903.72;4992058;28;20061;-63
2022/06/09 01:22:43;;;;;;;18.05;3.60;;;;;;;14.92;73.95;100908.47;4988317;28;20498;-64
2022/06/09 01:25:22;;;;;;;23.00;3.47;;;;;;;14.72;73.96;100920.34;4963214;28;20057;-64
2022/06/09 01:28:17;;;;;;;18.60;3.00;;;;;;;14.31;75.18;100915.53;4982769;28;20050;-63
2022/06/09 01:30:59;;;;;;;20.05;3.40;;;;;;;14.26;76.33;100918.50;4978103;28;20046;-63
2022/06/09 01:33:42;;;;;;;15.85;3.42;;;;;;;14.56;75.32;100920.94;4952068;28;20051;-64
2022/06/09 01:36:30;;;;;;;20.60;3.58;;;;;;;14.55;74.99;100933.19;4977714;28;20081;-64
2022/06/09 01:38:58;;;;;;;19.63;4.10;;;;;;;14.43;76.50;100935.88;4975104;28;20414;-64
2022/06/09 01:41:25;;;;;;;21.95;3.92;;;;;;;14.42;76.58;100922.31;4966596;28;20509;-66
2022/06/09 01:43:54;;;;;;;26.58;3.58;;;;;;;14.45;75.35;100924.44;4980506;28;20123;-65
2022/06/09 01:46:35;;;;;;;21.77;3.60;;;;;;;14.21;77.06;100933.31;4986725;28;20049;-65
2022/06/09 01:49:07;;;;;;;24.30;3.65;;;;;;;14.25;77.26;100925.97;4977334;28;20603;-65
2022/06/09 01:51:38;;;;;;;21.38;3.70;;;;;;;14.34;77.43;100934.28;4985738;28;20050;-64
2022/06/09 01:54:09;;;;;;;21.85;3.72;;;;;;;14.45;76.98;100928.00;4975333;28;20055;-64
2022/06/09 01:56:52;;;;;;;25.00;3.85;;;;;;;14.26;76.67;100933.16;4984870;28;20520;-65
2022/06/09 01:59:26;;;;;;;24.70;4.43;;;;;;;14.39;77.19;100932.13;4978652;28;20061;-64
2022/06/09 02:01:58;;;;;;;19.20;3.45;;;;;;;14.40;76.99;100935.72;4980340;28;20058;-65
2022/06/09 02:04:40;;;;;;;23.48;3.22;;;;;;;14.23;77.10;100936.56;4976214;28;20066;-63
2022/06/09 02:07:08;;;;;;;19.15;3.83;;;;;;;14.24;77.92;100937.38;4982809;28;20051;-64
2022/06/09 02:09:37;;;;;;;19.27;2.92;;;;;;;14.28;77.09;100950.25;4980037;28;20055;-64
2022/06/09 02:12:10;;;;;;;20.83;3.50;;;;;;;14.33;77.24;100939.00;4984206;28;20073;-63
2022/06/09 02:14:49;;;;;;;17.13;3.10;;;;;;;14.38;77.22;100949.09;4979064;28;20050;-64
2022/06/09 02:17:18;;;;;;;22.75;4.15;;;;;;;14.63;77.62;100950.91;4978910;28;20058;-63
2022/06/09 02:19:49;;;;;;;19.80;3.00;;;;;;;14.55;76.46;100955.38;4988774;28;20060;-63
2022/06/09 02:22:16;;;;;;;19.58;3.17;;;;;;;14.51;76.39;100962.72;4981746;28;20058;-63
2022/06/09 02:24:43;;;;;;;18.13;3.20;;;;;;;14.62;76.21;100955.66;4976850;28;20581;-63
2022/06/09 02:27:11;;;;;;;25.02;3.92;;;;;;;14.42;76.47;100953.63;4977808;28;20054;-64
2022/06/09 02:29:38;;;;;;;18.60;3.83;;;;;;;14.26;76.88;100957.31;4983945;28;20538;-64
2022/06/09 02:32:06;;;;;;;24.05;3.55;;;;;;;14.36;77.58;100951.38;4961296;28;20047;-64
2022/06/09 02:34:33;;;;;;;18.27;3.92;;;;;;;14.18;77.10;100955.31;4990879;28;20046;-64
2022/06/09 02:37:00;;;;;;;20.17;3.38;;;;;;;14.42;77.10;100945.31;4977612;28;20050;-64
2022/06/09 02:39:28;;;;;;;23.70;3.95;;;;;;;14.29;76.94;100951.91;4985092;28;20058;-63
2022/06/09 02:41:55;;;;;;;19.85;3.47;;;;;;;14.14;77.67;100946.88;4979224;28;20055;-64
2022/06/09 02:44:22;;;;;;;19.20;2.97;;;;;;;14.15;77.75;100948.50;4975782;28;20058;-64
2022/06/09 02:46:49;;;;;;;25.73;4.00;;;;;;;14.24;78.16;100954.81;4982819;28;20505;-64
2022/06/09 02:49:17;;;;;;;22.60;3.15;;;;;;;14.41;77.67;100956.72;4983435;28;20065;-64
2022/06/09 02:51:45;;;;;;;20.55;3.38;;;;;;;14.32;77.34;100961.50;4956626;28;20399;-64
2022/06/09 02:54:12;;;;;;;20.38;3.40;;;;;;;14.19;77.99;100970.81;4990198;28;20523;-63
2022/06/09 02:56:42;;;;;;;23.70;4.13;;;;;;;14.18;78.12;100958.09;4985776;28;20387;-64
2022/06/09 02:59:10;;;;;;;18.23;3.45;;;;;;;14.18;77.81;100949.78;4978964;28;20394;-65
2022/06/09 03:01:38;;;;;;;28.00;4.03;;;;;;;13.94;78.22;100964.22;4985039;28;20494;-64
2022/06/09 03:04:06;;;;;;;27.05;3.97;;;;;;;13.87;79.45;100960.31;4964841;28;20050;-64
2022/06/09 03:06:34;;;;;;;18.83;3.95;;;;;;;13.92;78.93;100965.66;4980630;28;20532;-64
2022/06/09 03:09:02;;;;;;;20.42;3.47;;;;;;;13.85;80.05;100957.88;4987871;28;20062;-65
2022/06/09 03:11:29;;;;;;;18.83;3.25;;;;;;;13.95;78.82;100967.78;4992147;28;20506;-64
2022/06/09 03:13:57;;;;;;;26.00;3.50;;;;;;;13.89;79.73;100967.16;4961872;28;20494;-64
2022/06/09 03:16:24;;;;;;;21.23;4.00;;;;;;;14.02;80.08;100965.31;4985543;28;20058;-64
2022/06/09 03:18:51;;;;;;;22.30;3.63;;;;;;;14.16;79.88;100968.69;4987047;28;20511;-64
2022/06/09 03:21:19;;;;;;;23.80;3.63;;;;;;;13.99;78.84;100965.97;4993524;28;20056;-65
2022/06/09 03:23:46;;;;;;;22.80;3.58;;;;;;;14.02;78.93;100957.00;4982490;28;20047;-64
2022/06/09 03:26:13;;;;;;;30.10;4.88;;;;;;;14.21;78.18;100963.00;4968546;28;20054;-64
2022/06/09 03:28:41;;;;;;;29.75;4.25;;;;;;;14.00;79.09;100957.34;4984100;28;20042;-64
2022/06/09 03:31:08;;;;;;;21.73;3.95;;;;;;;14.11;79.21;100968.88;4978151;28;20984;-64
2022/06/09 03:33:35;;;;;;;23.33;4.07;;;;;;;14.02;79.42;100968.09;4965606;28;20055;-64
2022/06/09 03:36:03;;;;;;;17.98;3.97;;;;;;;14.03;79.33;100967.78;4978029;28;20070;-64
2022/06/09 03:38:31;;;;;;;23.48;4.90;;;;;;;14.09;78.96;100968.38;4978656;28;20054;-64
2022/06/09 03:40:58;;;;;;;31.52;4.88;;;;;;;13.74;79.97;100981.50;4987602;28;20054;-66
2022/06/09 03:43:25;;;;;;;16.63;3.67;;;;;;;13.87;81.03;100982.47;4993264;28;20055;-63
2022/06/09 03:45:53;;;;;;;22.85;3.35;;;;;;;13.97;80.37;100993.19;4986439;28;20046;-64
2022/06/09 03:48:20;;;;;;;27.90;4.13;;;;;;;13.95;79.65;101001.00;4980833;28;20077;-63
2022/06/09 03:50:48;;;;;;;19.85;3.60;;;;;;;13.88;80.15;100993.19;4981574;28;20049;-63
2022/06/09 03:53:15;;;;;;;23.23;3.25;;;;;;;13.78;81.08;100995.50;4987630;28;20055;-65
2022/06/09 03:55:42;;;;;;;25.15;3.60;;;;;;;13.99;80.59;100994.50;4977905;28;20069;-65
2022/06/09 03:58:09;;;;;;;23.92;4.13;;;;;;;14.02;80.82;101001.31;4983012;28;20077;-64
2022/06/09 04:00:37;;;;;;;24.17;3.95;;;;;;;14.06;80.16;101005.06;4978976;28;20050;-64
2022/06/09 04:03:04;;;;;;;17.17;3.45;;;;;;;14.00;79.91;101007.19;4989884;28;20062;-63
2022/06/09 04:05:33;;;;;;;22.70;3.63;;;;;;;13.78;80.45;101017.66;4986632;28;20482;-64
2022/06/09 04:08:02;;;;;;;21.83;3.83;;;;;;;13.99;80.82;101011.13;4969311;28;20047;-64
2022/06/09 04:10:31;;;;;;;20.80;2.97;;;;;;;13.75;80.49;101021.09;4978809;28;20047;-64
2022/06/09 04:12:59;;;;;;;28.13;5.20;;;;;;;13.65;81.40;101021.41;4995714;28;20046;-63
2022/06/09 04:15:26;;;;;;;26.02;3.67;;;;;;;13.80;80.99;101015.38;4981388;28;20521;-64
2022/06/09 04:17:54;;;;;;;21.73;3.83;;;;;;;13.86;80.52;101009.34;4986571;28;20058;-65
2022/06/09 04:20:23;;;;;;;23.00;3.75;;;;;;;13.72;81.00;101024.50;4990557;28;21905;-63
2022/06/09 04:22:52;;;;;;;17.40;3.10;;;;;;;13.64;81.64;101031.66;4970047;28;20047;-65
2022/06/09 04:25:20;;;;;;;24.63;4.53;;;;;;;13.60;81.61;101039.00;4977260;28;20057;-64
2022/06/09 04:27:48;;;;;;;24.77;4.70;;;;;;;13.60;81.62;101046.50;4969996;28;20057;-64
2022/06/09 04:30:16;;;;;;;24.95;4.05;;;;;;;13.65;82.02;101044.34;4964959;28;20055;-64
2022/06/09 04:32:52;;;;;;;27.00;4.15;;;;;;;13.82;80.96;101044.38;4972552;28;20054;-65
2022/06/09 04:35:19;;;;;;;25.75;4.07;;;;;;;13.95;80.89;101046.13;4982234;28;20054;-65
2022/06/09 04:38:01;;;;;;;24.67;4.68;;;;;;;14.06;79.83;101050.19;4991470;28;20050;-65
2022/06/09 04:40:40;;;;;;;21.98;3.60;;;;;;;13.99;80.46;101058.19;4981353;28;20055;-65
2022/06/09 04:43:10;;;;;;;20.70;3.65;;;;;;;14.00;80.70;101053.47;4987072;28;20042;-65
2022/06/09 04:45:39;;;;;;;23.45;4.03;;;;;;;13.89;80.29;101058.53;4981853;28;20072;-65
2022/06/09 04:48:07;;;;;;;17.33;3.63;;;;;;;13.89;80.36;101068.78;4983287;28;20054;-64
2022/06/09 04:50:35;;;;;;;26.10;3.78;;;;;;;13.94;79.94;101060.31;4984192;28;20039;-65
2022/06/09 04:53:04;;;;;;;19.55;3.92;;;;;;;13.99;79.96;101074.00;4987264;28;20046;-64
2022/06/09 04:55:33;;;;;;;18.85;4.65;;;;;;;14.00;79.82;101084.75;4979362;28;20057;-64
2022/06/09 04:58:01;;;;;;;25.70;4.15;;;;;;;14.20;80.32;101078.53;4976594;28;20043;-64
2022/06/09 05:00:29;;;;;;;26.33;4.80;;;;;;;14.16;78.93;101090.59;4982739;28;20070;-64
2022/06/09 05:02:57;;;;;;;19.95;3.70;;;;;;;13.97;80.20;101079.88;4983726;28;20050;-63
2022/06/09 05:05:32;;;;;;;26.92;4.35;;;;;;;14.23;79.27;101085.34;4989650;28;20055;-64
2022/06/09 05:08:00;;;;;;;23.38;3.30;;;;;;;14.21;79.69;101091.22;4981995;28;20046;-64
2022/06/09 05:10:28;;;;;;;23.00;3.55;;;;;;;14.00;80.48;101098.59;4988351;28;20042;-64
2022/06/09 05:12:56;;;;;;;19.55;3.53;;;;;;;14.25;79.41;101094.16;4976990;28;20050;-66
2022/06/09 05:15:24;;;;;;;27.15;4.63;;;;;;;14.17;80.13;101086.69;4988043;28;20058;-65
2022/06/09 05:17:52;;;;;;;15.88;3.78;;;;;;;14.28;79.35;101093.53;4983930;28;20046;-65
2022/06/09 05:20:21;;;;;;;22.85;5.25;;;;;;;14.56;77.87;101097.53;4980362;28;20055;-64
2022/06/09 05:22:49;;;;;;;22.67;4.27;;;;;;;14.15;79.50;101103.66;4986901;28;20387;-65
2022/06/09 05:25:16;;;;;;;32.13;5.07;;;;;;;14.31;79.23;101102.00;4976514;28;20304;-65
2022/06/09 05:27:44;;;;;;;21.15;3.75;;;;;;;14.23;79.06;101110.28;4966003;28;20054;-64
2022/06/09 05:30:15;;;;;;;21.00;4.55;;;;;;;14.26;79.86;101109.69;4988793;28;20061;-64
2022/06/09 05:32:43;;;;;;;24.00;4.75;;;;;;;14.31;78.88;101115.84;4988630;28;21462;-66
2022/06/09 05:35:10;;;;;;;21.25;4.80;;;;;;;14.19;79.32;101114.88;4968228;28;20038;-65
2022/06/09 05:46:01;;;;;;;23.40;4.07;;;;;;;14.48;78.75;101121.38;4976093;28;20046;-64
2022/06/09 05:48:29;;;;;;;23.92;3.78;;;;;;;14.72;78.59;101131.09;4986418;28;20074;-64
2022/06/09 05:50:57;;;;;;;23.85;4.90;;;;;;;14.76;76.99;101132.88;4980594;28;20043;-71
2022/06/09 05:53:25;;;;;;;20.58;3.90;;;;;;;14.60;77.49;101137.31;4989046;28;20074;-70
2022/06/09 05:55:52;;;;;;;22.38;3.83;;;;;;;14.68;77.55;101141.22;4976679;28;20047;-71
2022/06/09 05:58:19;;;;;;;23.85;3.63;;;;;;;15.08;76.93;101146.13;4967936;28;20062;-66
2022/06/09 06:00:47;;;;;;;19.65;4.38;;;;;;;14.93;75.95;101140.31;4982221;28;20054;-73
2022/06/09 06:03:15;;;;;;;22.23;4.32;;;;;;;15.05;75.77;101146.81;4983518;28;20071;-70
2022/06/09 06:08:29;;;;;;;20.55;4.07;;;;;;;15.23;74.71;101155.88;4976055;28;20542;-65
2022/06/09 06:10:56;;;;;;;23.92;5.03;;;;;;;14.97;75.34;101163.47;4971798;28;20046;-65
2022/06/09 06:13:24;;;;;;;23.25;3.80;;;;;;;14.57;77.23;101166.50;4979588;28;20050;-64
2022/06/09 06:15:52;;;;;;;22.67;4.32;;;;;;;14.58;77.41;101165.38;4981697;28;20050;-66
2022/06/09 06:18:30;;;;;;;29.48;4.13;;;;;;;14.87;77.93;101170.19;4989800;28;20066;-66
2022/06/09 06:20:58;;;;;;;22.85;4.05;;;;;;;15.35;77.95;101169.84;4978658;28;20227;-65
2022/06/09 06:23:26;;;;;;;22.67;3.28;;;;;;;16.23;76.50;101170.59;4984243;28;20061;-67
2022/06/09 06:25:54;;;;;;;24.90;4.35;;;;;;;16.71;70.92;101166.06;4986039;28;20051;-69
2022/06/09 06:28:22;;;;;;;21.40;4.05;;;;;;;16.83;68.69;101168.03;4986292;28;20050;-65
2022/06/09 06:30:57;;;;;;;26.48;3.75;;;;;;;16.65;69.31;101161.84;4974298;28;20050;-69
2022/06/09 06:33:24;;;;;;;21.40;3.63;;;;;;;16.77;67.60;101163.88;4973045;28;20066;-64
2022/06/09 06:35:51;;;;;;;20.92;3.95;;;;;;;16.58;68.20;101171.94;4973594;28;20111;-63
2022/06/09 06:38:19;;;;;;;23.17;3.53;;;;;;;16.42;69.24;101176.47;4976270;28;20070;-64
2022/06/09 06:40:46;;;;;;;25.00;4.03;;;;;;;16.36;69.47;101180.59;4995621;28;20058;-66
2022/06/09 06:43:14;;;;;;;22.40;4.15;;;;;;;15.88;70.44;101189.50;4987774;28;20063;-66
2022/06/09 06:45:41;;;;;;;25.08;4.05;;;;;;;15.63;71.17;101191.28;4969944;28;20065;-66
2022/06/09 06:48:09;;;;;;;24.42;3.95;;;;;;;15.16;73.77;101192.47;4962895;28;20054;-66
2022/06/09 06:50:36;;;;;;;24.20;3.55;;;;;;;15.44;73.47;101187.31;4991016;28;20065;-67
2022/06/09 06:53:05;;;;;;;23.38;4.22;;;;;;;15.84;72.50;101185.75;4974583;28;20062;-67
2022/06/09 06:55:33;;;;;;;20.25;3.50;;;;;;;15.75;71.64;101198.88;4980468;28;20039;-74
2022/06/09 06:58:01;;;;;;;21.50;3.80;;;;;;;15.19;73.74;101208.44;4986046;28;20396;-66
2022/06/09 07:00:29;;;;;;;20.52;3.88;;;;;;;15.00;74.41;101213.56;4983842;28;20156;-66
2022/06/09 07:02:56;;;;;;;29.88;4.07;;;;;;;14.82;75.52;101200.09;4989724;28;20055;-74
2022/06/09 07:05:53;;;;;;;26.10;4.60;;;;;;;14.95;75.13;101219.28;4978740;28;20054;-74
2022/06/09 07:08:24;;;;;;;25.10;4.03;;;;;;;14.79;75.98;101220.97;4986675;28;20085;-73
2022/06/09 07:10:52;;;;;;;25.70;3.83;;;;;;;14.77;75.42;101222.44;4972585;28;20046;-73
2022/06/09 07:13:20;;;;;;;24.35;4.47;;;;;;;15.03;75.65;101220.44;4989806;28;20058;-66
2022/06/09 07:15:49;;;;;;;19.80;3.80;;;;;;;15.25;74.56;101234.06;4989618;28;20046;-74
2022/06/09 07:18:17;;;;;;;21.13;3.80;;;;;;;14.84;75.60;101233.81;4989199;28;20161;-74
2022/06/09 07:20:44;;;;;;;22.48;4.38;;;;;;;15.15;75.46;101226.91;4973715;28;20061;-74
2022/06/09 07:23:12;;;;;;;15.15;3.20;;;;;;;15.66;74.12;101234.22;4979398;28;20059;-74
2022/06/09 07:25:39;;;;;;;24.35;4.68;;;;;;;15.87;72.04;101240.63;4986095;28;20051;-75
2022/06/09 07:28:07;;;;;;;22.88;3.90;;;;;;;16.11;71.85;101237.22;4979248;28;20537;-73
2022/06/09 07:30:35;;;;;;;24.27;4.30;;;;;;;16.16;70.32;101245.38;4985357;28;20065;-73
2022/06/09 07:33:02;;;;;;;23.20;3.58;;;;;;;16.36;69.53;101239.81;4977421;28;20047;-73
2022/06/09 07:35:32;;;;;;;21.45;4.07;;;;;;;16.35;68.35;101242.94;4983609;28;20034;-66
2022/06/09 07:38:00;;;;;;;20.30;4.07;;;;;;;15.58;70.70;101251.75;4978157;28;20454;-66
2022/06/09 07:40:27;;;;;;;17.08;3.70;;;;;;;15.81;70.46;101249.50;4992237;28;20055;-66
2022/06/09 07:42:55;;;;;;;21.60;3.80;;;;;;;15.82;68.90;101263.06;4963008;28;20061;-66
2022/06/09 07:45:23;;;;;;;21.70;3.67;;;;;;;15.74;68.89;101266.72;4981888;28;20051;-66
2022/06/09 07:47:50;;;;;;;20.17;4.13;;;;;;;15.98;69.18;101255.78;4970567;28;20051;-67
2022/06/09 07:50:18;;;;;;;16.67;3.33;;;;;;;15.87;68.04;101254.53;4975896;28;20047;-68
2022/06/09 07:52:46;;;;;;;18.48;3.47;;;;;;;15.76;67.80;101270.75;4975264;28;20054;-67
2022/06/09 07:55:15;;;;;;;22.23;4.05;;;;;;;15.62;69.70;101261.06;4978102;28;20050;-67
2022/06/09 07:57:43;;;;;;;19.85;3.90;;;;;;;16.05;68.65;101261.63;4953114;28;20425;-67
2022/06/09 08:00:13;;;;;;;21.73;4.53;;;;;;;16.25;68.30;101265.59;4982979;28;20077;-68
2022/06/09 08:02:41;;;;;;;18.08;3.35;;;;;;;16.34;67.59;101267.13;4985815;28;20411;-67
2022/06/09 08:05:10;;;;;;;16.05;3.63;;;;;;;16.65;67.12;101264.78;4980138;28;20050;-67
2022/06/09 08:07:37;;;;;;;19.13;3.70;;;;;;;16.35;66.40;101265.97;4986914;28;20063;-62
2022/06/09 08:10:06;;;;;;;21.08;3.50;;;;;;;16.19;67.08;101278.03;4958368;28;20486;-62
2022/06/09 08:12:34;;;;;;;21.40;3.53;;;;;;;16.12;66.58;101292.47;4983533;28;20116;-66
2022/06/09 08:15:03;;;;;;;18.83;4.00;;;;;;;15.84;67.12;101290.50;4963507;28;20736;-63
2022/06/09 08:17:30;;;;;;;23.92;3.65;;;;;;;15.76;68.10;101287.44;4964005;28;20131;-67
2022/06/09 08:19:58;;;;;;;19.60;3.75;;;;;;;16.22;67.71;101285.69;4965122;28;20051;-69
2022/06/09 08:22:25;;;;;;;21.60;3.72;;;;;;;16.41;65.76;101286.03;4967972;28;20046;-64
2022/06/09 08:24:52;;;;;;;17.10;3.83;;;;;;;16.58;65.35;101286.75;4964375;28;20050;-63
2022/06/09 08:27:20;;;;;;;20.67;4.20;;;;;;;17.22;63.87;101287.16;4965722;28;20061;-63
2022/06/09 08:29:51;;;;;;;17.50;4.15;;;;;;;16.72;64.33;101300.38;4972995;28;20057;-63
2022/06/09 08:32:18;;;;;;;19.17;3.35;;;;;;;16.55;63.81;101295.78;4967431;28;20039;-64
2022/06/09 08:34:45;;;;;;;19.25;3.70;;;;;;;16.36;65.09;101298.19;4969282;28;20709;-69
2022/06/09 08:37:13;;;;;;;18.15;3.67;;;;;;;16.58;64.85;101303.44;4967617;28;20394;-67
2022/06/09 08:39:40;;;;;;;18.25;3.33;;;;;;;16.57;64.30;101304.63;4972800;28;20050;-65
2022/06/09 08:42:21;;;;;;;16.77;3.22;;;;;;;16.80;63.42;101314.25;4992417;28;20054;-66
2022/06/09 08:44:56;;;;;;;16.88;3.65;;;;;;;16.57;63.31;101303.78;4972972;28;20058;-65
2022/06/09 08:47:29;;;;;;;23.83;4.03;;;;;;;16.42;64.79;101298.81;4989989;28;20407;-65
2022/06/09 08:50:01;;;;;;;20.73;3.45;;;;;;;16.55;63.90;101295.78;4957783;28;20050;-64
2022/06/09 08:52:45;;;;;;;21.08;3.10;;;;;;;16.63;62.78;101294.09;4972815;28;20073;-65
2022/06/09 08:55:29;;;;;;;17.48;3.55;;;;;;;16.99;61.90;101280.34;4960788;28;20051;-66
2022/06/09 08:58:05;;;;;;;18.63;3.05;;;;;;;16.92;61.29;101276.47;4986245;28;20494;-65
2022/06/09 09:00:38;;;;;;;17.05;2.85;;;;;;;17.00;60.69;101281.94;4970281;28;20050;-65
2022/06/09 09:03:13;;;;;;;17.30;3.17;;;;;;;17.36;59.78;101281.25;4967050;28;20050;-64
2022/06/09 09:05:50;;;;;;;15.50;2.83;;;;;;;17.57;59.42;101288.38;4958588;28;20046;-64
2022/06/09 09:08:17;;;;;;;15.50;3.22;;;;;;;17.36;60.05;101279.28;4980518;28;20069;-64
2022/06/09 09:11:08;;;;;;;12.88;3.25;;;;;;;17.75;59.91;101281.44;4983670;28;20050;-65
2022/06/09 09:13:42;;;;;;;14.77;3.25;;;;;;;18.47;58.79;101280.59;4982416;28;20054;-65
2022/06/09 09:16:25;;;;;;;9.55;2.65;;;;;;;18.43;55.17;101273.28;4981631;28;20049;-65
2022/06/09 09:18:59;;;;;;;15.93;3.22;;;;;;;18.68;56.09;101284.00;4966783;28;20061;-65
2022/06/09 09:21:45;;;;;;;11.80;3.00;;;;;;;19.17;54.44;101269.81;4961963;28;20065;-65
2022/06/09 09:24:19;;;;;;;21.77;3.42;;;;;;;19.64;53.23;101273.50;4990669;28;20054;-65
2022/06/09 09:26:55;;;;;;;17.58;3.50;;;;;;;19.98;52.72;101281.94;4960004;28;20054;-65
2022/06/09 09:29:30;;;;;;;17.67;2.72;;;;;;;19.49;52.47;101279.91;4988154;28;20054;-65
2022/06/09 09:32:02;;;;;;;16.10;3.00;;;;;;;19.08;53.13;101286.75;4989471;28;20306;-65
2022/06/09 09:34:39;;;;;;;15.38;2.90;;;;;;;18.84;54.02;101298.03;4956260;28;20047;-65
2022/06/09 09:37:38;;;;;;;14.88;3.33;;;;;;;18.56;54.11;101294.38;4975991;28;20050;-65
2022/06/09 09:40:12;;;;;;;18.60;3.22;;;;;;;18.02;54.10;101288.28;4984159;28;20054;-67
2022/06/09 09:42:42;;;;;;;16.70;2.80;;;;;;;17.75;56.06;101298.16;4989163;28;20051;-65
2022/06/09 09:45:10;;;;;;;13.93;2.78;;;;;;;18.20;55.27;101280.50;4973514;28;20059;-65
2022/06/09 09:47:44;;;;;;;17.55;3.25;;;;;;;18.49;54.24;101288.59;4984891;28;20046;-66
2022/06/09 09:50:48;;;;;;;12.48;2.63;;;;;;;18.39;53.94;101289.06;4987587;28;20050;-65
2022/06/09 09:53:18;;;;;;;18.25;2.65;;;;;;;19.00;53.61;101285.72;4940870;28;20058;-64
2022/06/09 09:55:50;;;;;;;;;;;;;;;19.15;53.25;101300.91;4981506;28;20054;-65
2022/06/09 09:58:20;;;;;;;17.25;2.70;;;;;;;18.84;53.85;101301.63;4982621;28;19925;-67
2022/06/09 10:00:58;;;;;;;11.02;2.90;;;;;;;18.80;53.76;101297.09;4982038;28;20047;-63
2022/06/09 10:09:36;;;;;;;16.52;2.75;;;;;;;19.08;52.23;101309.91;4979256;28;20633;-68
2022/06/09 10:12:17;;;;;;;13.45;2.55;;;;;;;19.00;51.72;101310.84;4988089;28;20051;-67
2022/06/09 10:15:05;;;;;;;12.45;2.67;;;;;;;18.64;52.84;101321.31;4986679;28;20545;-64
2022/06/09 10:17:59;;;;;;;15.15;3.25;;;;;;;18.84;53.02;101311.97;4977012;28;20045;-65
2022/06/09 10:20:49;;;;;;;14.20;2.80;;;;;;;19.21;51.53;101307.03;4993155;28;20402;-65
2022/06/09 10:23:23;;;;;;;11.18;2.50;;;;;;;19.33;50.56;101318.19;4970119;28;20092;-64
2022/06/09 10:26:07;;;;;;;18.98;2.97;;;;;;;19.12;51.97;101317.56;4984097;28;20051;-64
2022/06/09 10:28:50;;;;;;;11.57;2.60;;;;;;;19.55;50.70;101307.22;4967260;28;20070;-65
2022/06/09 10:31:39;;;;;;;12.23;2.80;;;;;;;19.95;48.91;101310.66;4978645;28;20058;-66
2022/06/09 10:34:30;;;;;;;17.30;2.78;;;;;;;19.61;49.30;101307.78;4986329;28;20068;-65
2022/06/09 10:37:25;;;;;;;10.88;2.20;;;;;;;19.48;50.04;101311.81;4954136;28;20066;-66
2022/06/09 10:39:57;;;;;;;13.25;2.53;;;;;;;19.28;50.28;101322.03;4979641;28;20058;-66
2022/06/09 10:42:28;;;;;;;23.40;3.70;;;;;;;19.12;51.37;101312.78;4965441;28;20054;-67
2022/06/09 10:44:59;;;;;;;19.00;3.35;;;;;;;19.37;49.71;101311.50;4977724;28;20050;-65
2022/06/09 10:56:35;;;;;;;12.10;1.88;;;;;;;19.25;47.98;101331.09;4979404;28;20054;-65
2022/06/09 10:59:12;;;;;;;13.18;2.45;;;;;;;19.07;49.04;101327.03;4978303;28;20042;-67
2022/06/09 11:01:39;;;;;;;14.48;6.18;;;;;;;19.18;49.63;101336.50;4989234;28;20066;-71
2022/06/09 11:04:14;;;;;;;18.75;8.63;;;;;;;19.18;49.27;101344.06;4966696;28;20042;-68
2022/06/09 11:06:51;;;;;;;12.40;4.20;;;;;;;18.39;51.64;101340.09;4977912;28;20054;-68
2022/06/09 11:09:49;;;;;;;13.30;3.35;;;;;;;18.55;51.66;101337.41;4981871;28;20516;-71
2022/06/09 11:12:43;;;;;;;10.32;2.90;;;;;;;19.15;51.02;101341.97;4960674;28;20055;-76
2022/06/09 11:15:15;;;;;;;14.55;3.25;;;;;;;19.32;49.65;101336.91;4957451;28;20169;-77
2022/06/09 11:18:13;;;;;;;15.43;4.95;;;;;;;19.30;49.53;101336.47;4991817;28;20051;-77
2022/06/09 11:20:52;;;;;;;14.52;5.00;;;;;;;20.03;47.91;101336.81;4978795;28;20047;-75
2022/06/09 11:23:38;;;;;;;13.55;3.65;;;;;;;19.51;47.77;101325.88;4976942;28;20054;-76
2022/06/09 11:26:11;;;;;;;22.40;7.15;;;;;;;19.58;46.79;101330.84;4976986;28;20050;-77
2022/06/09 11:28:54;;;;;;;71.85;30.77;;;;;;;19.29;48.02;101343.19;4981541;28;20527;-77
2022/06/09 11:31:49;;;;;;;27.80;11.63;;;;;;;19.36;47.95;101339.81;4985380;28;20497;-77
2022/06/09 11:34:22;;;;;;;29.85;13.27;;;;;;;19.47;47.88;101333.38;4976622;28;20050;-79
2022/06/09 11:37:07;;;;;;;12.55;4.50;;;;;;;19.48;46.61;101339.75;4977545;28;20061;-78
2022/06/09 11:39:46;;;;;;;16.58;4.32;;;;;;;20.01;45.25;101336.34;4955045;29;20074;-77
2022/06/09 11:42:40;;;;;;;13.05;3.65;;;;;;;19.84;45.41;101328.34;4957786;28;20051;-74
2022/06/09 11:45:32;;;;;;;11.82;3.03;;;;;;;19.59;46.11;101329.66;4960251;28;20051;-70
2022/06/09 11:48:02;;;;;;;13.00;4.32;;;;;;;19.57;46.62;101338.41;4955950;28;20734;-72
2022/06/09 11:50:40;;;;;;;16.27;6.55;;;;;;;19.82;46.00;101337.06;4943823;28;20051;-76
2022/06/09 11:53:15;;;;;;;10.43;3.25;;;;;;;19.98;45.20;101337.06;4971510;28;20492;-70
2022/06/09 11:55:58;;;;;;;10.30;3.13;;;;;;;19.60;44.97;101337.69;4959276;28;20055;-68
2022/06/09 11:58:34;;;;;;;11.40;2.53;;;;;;;19.60;44.48;101331.28;4955170;28;20060;-74
2022/06/09 12:01:20;;;;;;;10.95;2.45;;;;;;;19.61;44.81;101328.16;4947385;28;20070;-67
2022/06/09 12:04:09;;;;;;;7.47;1.80;;;;;;;20.01;44.49;101336.34;4957176;28;20058;-72
2022/06/09 12:07:27;;;;;;;11.30;2.50;;;;;;;20.38;44.53;101337.66;4962520;28;20047;-75